sensor_id;sensor_type;location;lat;lon;timestamp;P1;durP1;ratioP1;P2;durP2;ratioP2
23242;SDS011;11790;49.578;11.214;2023-06-14T00:03:42;7.30;;;3.65;;
23242;SDS011;11790;49.578;11.214;2023-06-14T00:08:42;4.32;;;3.63;;
23242;SDS011;11790;49.578;11.214;2023-06-14T00:13:42;6.90;;;3.55;;
23242;SDS011;11790;49.578;11.214;2023-06-14T00:18:43;7.10;;;4.10;;
23242;SDS011;11790;49.578;11.214;2023-06-14T00:23:43;5.65;;;3.70;;
23242;SDS011;11790;49.578;11.214;2023-06-14T00:28:43;6.32;;;4.63;;
23242;SDS011;11790;49.578;11.214;2023-06-14T00:33:43;4.18;;;3.25;;
23242;SDS011;11790;49.578;11.214;2023-06-14T00:38:43;6.20;;;3.80;;
23242;SDS011;11790;49.578;11.214;2023-06-14T00:43:44;8.07;;;3.83;;
23242;SDS011;11790;49.578;11.214;2023-06-14T00:48:44;9.35;;;3.88;;
23242;SDS011;11790;49.578;11.214;2023-06-14T00:53:44;5.45;;;3.60;;
23242;SDS011;11790;49.578;11.214;2023-06-14T00:58:46;5.38;;;3.67;;
23242;SDS011;11790;49.578;11.214;2023-06-14T01:03:47;7.50;;;3.28;;
23242;SDS011;11790;49.578;11.214;2023-06-14T01:08:49;6.20;;;3.42;;
23242;SDS011;11790;49.578;11.214;2023-06-14T01:13:51;8.25;;;3.42;;
23242;SDS011;11790;49.578;11.214;2023-06-14T01:18:52;4.67;;;3.63;;
23242;SDS011;11790;49.578;11.214;2023-06-14T01:23:56;5.47;;;3.67;;
23242;SDS011;11790;49.578;11.214;2023-06-14T01:28:56;6.70;;;3.63;;
23242;SDS011;11790;49.578;11.214;2023-06-14T01:33:58;6.80;;;3.58;;
23242;SDS011;11790;49.578;11.214;2023-06-14T01:38:58;5.15;;;3.45;;
23242;SDS011;11790;49.578;11.214;2023-06-14T01:43:59;7.90;;;3.63;;
23242;SDS011;11790;49.578;11.214;2023-06-14T01:48:59;6.55;;;3.78;;
23242;SDS011;11790;49.578;11.214;2023-06-14T01:54:00;9.20;;;3.90;;
23242;SDS011;11790;49.578;11.214;2023-06-14T01:59:00;6.95;;;3.63;;
23242;SDS011;11790;49.578;11.214;2023-06-14T02:04:00;5.78;;;3.85;;
23242;SDS011;11790;49.578;11.214;2023-06-14T02:09:01;6.40;;;3.78;;
23242;SDS011;11790;49.578;11.214;2023-06-14T02:14:01;7.87;;;4.00;;
23242;SDS011;11790;49.578;11.214;2023-06-14T02:19:01;5.67;;;3.33;;
23242;SDS011;11790;49.578;11.214;2023-06-14T02:24:01;5.47;;;3.88;;
23242;SDS011;11790;49.578;11.214;2023-06-14T02:29:02;4.95;;;3.78;;
23242;SDS011;11790;49.578;11.214;2023-06-14T02:34:02;7.28;;;3.70;;
23242;SDS011;11790;49.578;11.214;2023-06-14T02:39:02;6.35;;;3.55;;
23242;SDS011;11790;49.578;11.214;2023-06-14T02:44:02;7.05;;;3.75;;
23242;SDS011;11790;49.578;11.214;2023-06-14T02:49:03;6.25;;;3.88;;
23242;SDS011;11790;49.578;11.214;2023-06-14T02:54:03;9.57;;;3.92;;
23242;SDS011;11790;49.578;11.214;2023-06-14T02:59:03;6.15;;;4.05;;
23242;SDS011;11790;49.578;11.214;2023-06-14T03:04:03;5.97;;;4.15;;
23242;SDS011;11790;49.578;11.214;2023-06-14T03:09:04;6.35;;;4.30;;
23242;SDS011;11790;49.578;11.214;2023-06-14T03:14:04;4.93;;;3.90;;
23242;SDS011;11790;49.578;11.214;2023-06-14T03:19:06;5.43;;;4.30;;
23242;SDS011;11790;49.578;11.214;2023-06-14T03:24:07;5.95;;;4.30;;
23242;SDS011;11790;49.578;11.214;2023-06-14T03:29:07;6.25;;;3.90;;
23242;SDS011;11790;49.578;11.214;2023-06-14T03:34:07;8.07;;;4.97;;
23242;SDS011;11790;49.578;11.214;2023-06-14T03:39:07;7.07;;;4.63;;
23242;SDS011;11790;49.578;11.214;2023-06-14T03:44:08;11.57;;;4.65;;
23242;SDS011;11790;49.578;11.214;2023-06-14T03:49:08;5.93;;;4.25;;
23242;SDS011;11790;49.578;11.214;2023-06-14T03:54:08;6.53;;;4.22;;
23242;SDS011;11790;49.578;11.214;2023-06-14T03:59:08;7.03;;;4.00;;
23242;SDS011;11790;49.578;11.214;2023-06-14T04:04:08;5.68;;;3.95;;
23242;SDS011;11790;49.578;11.214;2023-06-14T04:09:09;6.13;;;4.15;;
23242;SDS011;11790;49.578;11.214;2023-06-14T04:14:09;5.30;;;4.18;;
23242;SDS011;11790;49.578;11.214;2023-06-14T04:19:09;6.55;;;4.20;;
23242;SDS011;11790;49.578;11.214;2023-06-14T04:24:09;8.00;;;4.50;;
23242;SDS011;11790;49.578;11.214;2023-06-14T04:29:14;5.35;;;4.18;;
23242;SDS011;11790;49.578;11.214;2023-06-14T04:34:16;5.88;;;4.13;;
23242;SDS011;11790;49.578;11.214;2023-06-14T04:39:16;6.47;;;4.47;;
23242;SDS011;11790;49.578;11.214;2023-06-14T04:44:20;7.13;;;4.20;;
23242;SDS011;11790;49.578;11.214;2023-06-14T04:49:20;6.88;;;4.60;;
23242;SDS011;11790;49.578;11.214;2023-06-14T04:54:23;6.60;;;4.50;;
23242;SDS011;11790;49.578;11.214;2023-06-14T04:59:24;7.15;;;4.00;;
23242;SDS011;11790;49.578;11.214;2023-06-14T05:04:24;9.70;;;4.50;;
23242;SDS011;11790;49.578;11.214;2023-06-14T05:09:26;8.80;;;4.65;;
23242;SDS011;11790;49.578;11.214;2023-06-14T05:14:26;7.13;;;4.60;;
23242;SDS011;11790;49.578;11.214;2023-06-14T05:19:26;8.85;;;5.22;;
23242;SDS011;11790;49.578;11.214;2023-06-14T05:24:27;11.52;;;5.32;;
23242;SDS011;11790;49.578;11.214;2023-06-14T05:29:29;7.72;;;4.68;;
23242;SDS011;11790;49.578;11.214;2023-06-14T05:34:29;12.13;;;5.00;;
23242;SDS011;11790;49.578;11.214;2023-06-14T05:39:29;11.63;;;4.45;;
23242;SDS011;11790;49.578;11.214;2023-06-14T05:44:30;8.55;;;4.40;;
23242;SDS011;11790;49.578;11.214;2023-06-14T05:49:30;6.55;;;4.32;;
23242;SDS011;11790;49.578;11.214;2023-06-14T05:54:30;7.78;;;4.38;;
23242;SDS011;11790;49.578;11.214;2023-06-14T05:59:31;9.27;;;4.10;;
23242;SDS011;11790;49.578;11.214;2023-06-14T06:04:31;5.75;;;3.97;;
23242;SDS011;11790;49.578;11.214;2023-06-14T06:09:32;5.25;;;4.03;;
23242;SDS011;11790;49.578;11.214;2023-06-14T06:14:32;4.60;;;3.78;;
23242;SDS011;11790;49.578;11.214;2023-06-14T06:19:32;4.57;;;3.58;;
23242;SDS011;11790;49.578;11.214;2023-06-14T06:24:32;7.70;;;3.72;;
23242;SDS011;11790;49.578;11.214;2023-06-14T06:29:32;4.10;;;3.25;;
23242;SDS011;11790;49.578;11.214;2023-06-14T06:34:33;5.22;;;3.50;;
23242;SDS011;11790;49.578;11.214;2023-06-14T06:39:33;7.55;;;3.70;;
23242;SDS011;11790;49.578;11.214;2023-06-14T06:44:33;6.80;;;4.30;;
23242;SDS011;11790;49.578;11.214;2023-06-14T06:49:33;5.72;;;3.58;;
23242;SDS011;11790;49.578;11.214;2023-06-14T06:54:33;7.88;;;4.28;;
23242;SDS011;11790;49.578;11.214;2023-06-14T06:59:34;5.78;;;3.25;;
23242;SDS011;11790;49.578;11.214;2023-06-14T07:04:34;5.75;;;3.15;;
23242;SDS011;11790;49.578;11.214;2023-06-14T07:09:34;5.32;;;3.45;;
23242;SDS011;11790;49.578;11.214;2023-06-14T07:14:35;3.47;;;2.83;;
23242;SDS011;11790;49.578;11.214;2023-06-14T07:19:35;4.13;;;3.07;;
23242;SDS011;11790;49.578;11.214;2023-06-14T07:24:35;4.43;;;2.88;;
23242;SDS011;11790;49.578;11.214;2023-06-14T07:29:36;4.63;;;2.80;;
23242;SDS011;11790;49.578;11.214;2023-06-14T07:34:36;3.53;;;2.80;;
23242;SDS011;11790;49.578;11.214;2023-06-14T07:39:36;5.65;;;2.78;;
23242;SDS011;11790;49.578;11.214;2023-06-14T07:44:36;3.05;;;2.75;;
23242;SDS011;11790;49.578;11.214;2023-06-14T07:49:37;5.07;;;2.97;;
23242;SDS011;11790;49.578;11.214;2023-06-14T07:54:37;3.97;;;2.70;;
23242;SDS011;11790;49.578;11.214;2023-06-14T07:59:37;4.50;;;2.65;;
23242;SDS011;11790;49.578;11.214;2023-06-14T08:04:38;5.05;;;2.58;;
23242;SDS011;11790;49.578;11.214;2023-06-14T08:09:38;7.97;;;2.97;;
23242;SDS011;11790;49.578;11.214;2023-06-14T08:14:39;3.70;;;2.50;;
23242;SDS011;11790;49.578;11.214;2023-06-14T08:19:39;3.38;;;2.60;;
23242;SDS011;11790;49.578;11.214;2023-06-14T08:24:39;4.68;;;2.88;;
23242;SDS011;11790;49.578;11.214;2023-06-14T08:29:40;3.25;;;2.53;;
23242;SDS011;11790;49.578;11.214;2023-06-14T08:34:41;4.80;;;2.90;;
23242;SDS011;11790;49.578;11.214;2023-06-14T08:39:41;5.00;;;2.67;;
23242;SDS011;11790;49.578;11.214;2023-06-14T08:44:42;4.03;;;2.57;;
23242;SDS011;11790;49.578;11.214;2023-06-14T08:49:42;6.38;;;2.53;;
23242;SDS011;11790;49.578;11.214;2023-06-14T08:54:45;3.65;;;2.40;;
23242;SDS011;11790;49.578;11.214;2023-06-14T08:59:46;5.50;;;3.20;;
23242;SDS011;11790;49.578;11.214;2023-06-14T09:04:46;2.70;;;2.45;;
23242;SDS011;11790;49.578;11.214;2023-06-14T09:09:46;2.92;;;2.30;;
23242;SDS011;11790;49.578;11.214;2023-06-14T09:14:47;4.03;;;2.90;;
23242;SDS011;11790;49.578;11.214;2023-06-14T09:19:47;5.53;;;2.40;;
23242;SDS011;11790;49.578;11.214;2023-06-14T09:24:47;4.25;;;2.42;;
23242;SDS011;11790;49.578;11.214;2023-06-14T09:29:47;4.35;;;2.30;;
23242;SDS011;11790;49.578;11.214;2023-06-14T09:34:47;3.38;;;2.30;;
23242;SDS011;11790;49.578;11.214;2023-06-14T09:39:50;5.88;;;2.33;;
23242;SDS011;11790;49.578;11.214;2023-06-14T09:44:51;5.45;;;2.88;;
23242;SDS011;11790;49.578;11.214;2023-06-14T09:49:52;4.20;;;2.40;;
23242;SDS011;11790;49.578;11.214;2023-06-14T09:54:54;6.13;;;2.63;;
23242;SDS011;11790;49.578;11.214;2023-06-14T09:59:57;4.47;;;2.90;;
23242;SDS011;11790;49.578;11.214;2023-06-14T10:05:04;2.55;;;2.35;;
23242;SDS011;11790;49.578;11.214;2023-06-14T10:10:06;5.22;;;2.80;;
23242;SDS011;11790;49.578;11.214;2023-06-14T10:15:10;3.45;;;2.80;;
23242;SDS011;11790;49.578;11.214;2023-06-14T10:20:21;3.33;;;2.28;;
23242;SDS011;11790;49.578;11.214;2023-06-14T10:25:28;3.50;;;2.63;;
23242;SDS011;11790;49.578;11.214;2023-06-14T10:30:28;3.42;;;2.40;;
23242;SDS011;11790;49.578;11.214;2023-06-14T10:35:29;6.28;;;3.03;;
23242;SDS011;11790;49.578;11.214;2023-06-14T10:40:29;2.92;;;2.47;;
23242;SDS011;11790;49.578;11.214;2023-06-14T10:45:30;3.65;;;2.67;;
23242;SDS011;11790;49.578;11.214;2023-06-14T10:50:30;3.50;;;2.38;;
23242;SDS011;11790;49.578;11.214;2023-06-14T10:55:30;3.10;;;2.47;;
23242;SDS011;11790;49.578;11.214;2023-06-14T11:00:34;6.30;;;2.50;;
23242;SDS011;11790;49.578;11.214;2023-06-14T11:10:47;3.13;;;2.38;;
23242;SDS011;11790;49.578;11.214;2023-06-14T11:15:48;3.53;;;2.60;;
23242;SDS011;11790;49.578;11.214;2023-06-14T11:20:49;3.85;;;2.30;;
23242;SDS011;11790;49.578;11.214;2023-06-14T11:25:49;5.10;;;2.25;;
23242;SDS011;11790;49.578;11.214;2023-06-14T11:31:02;2.85;;;2.17;;
23242;SDS011;11790;49.578;11.214;2023-06-14T11:36:03;3.22;;;1.92;;
23242;SDS011;11790;49.578;11.214;2023-06-14T11:41:05;4.32;;;2.40;;
23242;SDS011;11790;49.578;11.214;2023-06-14T11:46:12;4.35;;;2.40;;
23242;SDS011;11790;49.578;11.214;2023-06-14T11:51:12;2.85;;;2.30;;
23242;SDS011;11790;49.578;11.214;2023-06-14T11:56:12;4.70;;;1.95;;
23242;SDS011;11790;49.578;11.214;2023-06-14T12:01:16;4.78;;;2.22;;
23242;SDS011;11790;49.578;11.214;2023-06-14T12:06:19;3.50;;;2.10;;
23242;SDS011;11790;49.578;11.214;2023-06-14T12:11:31;3.78;;;2.05;;
23242;SDS011;11790;49.578;11.214;2023-06-14T12:16:33;5.68;;;2.30;;
23242;SDS011;11790;49.578;11.214;2023-06-14T12:21:34;3.17;;;2.10;;
23242;SDS011;11790;49.578;11.214;2023-06-14T12:26:37;2.72;;;2.20;;
23242;SDS011;11790;49.578;11.214;2023-06-14T12:31:38;4.47;;;2.20;;
23242;SDS011;11790;49.578;11.214;2023-06-14T12:36:38;4.43;;;1.98;;
23242;SDS011;11790;49.578;11.214;2023-06-14T12:41:44;3.72;;;2.30;;
23242;SDS011;11790;49.578;11.214;2023-06-14T12:46:44;4.60;;;2.28;;
23242;SDS011;11790;49.578;11.214;2023-06-14T12:51:44;3.30;;;2.05;;
23242;SDS011;11790;49.578;11.214;2023-06-14T12:56:44;5.57;;;2.47;;
23242;SDS011;11790;49.578;11.214;2023-06-14T13:01:44;3.83;;;1.85;;
23242;SDS011;11790;49.578;11.214;2023-06-14T13:06:45;3.23;;;2.33;;
23242;SDS011;11790;49.578;11.214;2023-06-14T13:11:45;5.43;;;2.30;;
23242;SDS011;11790;49.578;11.214;2023-06-14T13:16:47;4.82;;;1.98;;
23242;SDS011;11790;49.578;11.214;2023-06-14T13:21:47;2.67;;;1.98;;
23242;SDS011;11790;49.578;11.214;2023-06-14T13:26:47;4.85;;;2.55;;
23242;SDS011;11790;49.578;11.214;2023-06-14T13:31:47;3.63;;;1.92;;
23242;SDS011;11790;49.578;11.214;2023-06-14T13:36:48;2.17;;;1.90;;
23242;SDS011;11790;49.578;11.214;2023-06-14T13:41:49;4.10;;;2.38;;
23242;SDS011;11790;49.578;11.214;2023-06-14T13:46:49;2.50;;;1.83;;
23242;SDS011;11790;49.578;11.214;2023-06-14T13:51:50;2.20;;;2.00;;
23242;SDS011;11790;49.578;11.214;2023-06-14T13:56:50;2.75;;;1.90;;
23242;SDS011;11790;49.578;11.214;2023-06-14T14:01:50;2.00;;;1.70;;
23242;SDS011;11790;49.578;11.214;2023-06-14T14:06:51;4.20;;;1.90;;
23242;SDS011;11790;49.578;11.214;2023-06-14T14:11:51;2.83;;;1.70;;
23242;SDS011;11790;49.578;11.214;2023-06-14T14:16:51;3.05;;;1.70;;
23242;SDS011;11790;49.578;11.214;2023-06-14T14:21:53;2.25;;;1.70;;
23242;SDS011;11790;49.578;11.214;2023-06-14T14:26:53;1.93;;;1.70;;
23242;SDS011;11790;49.578;11.214;2023-06-14T14:31:54;2.10;;;1.83;;
23242;SDS011;11790;49.578;11.214;2023-06-14T14:36:54;2.07;;;1.80;;
23242;SDS011;11790;49.578;11.214;2023-06-14T14:41:54;3.50;;;1.85;;
23242;SDS011;11790;49.578;11.214;2023-06-14T14:46:54;2.47;;;1.60;;
23242;SDS011;11790;49.578;11.214;2023-06-14T14:51:55;2.83;;;1.92;;
23242;SDS011;11790;49.578;11.214;2023-06-14T14:56:56;7.10;;;2.17;;
23242;SDS011;11790;49.578;11.214;2023-06-14T15:01:56;4.55;;;2.20;;
23242;SDS011;11790;49.578;11.214;2023-06-14T15:06:57;2.35;;;1.95;;
23242;SDS011;11790;49.578;11.214;2023-06-14T15:11:57;3.40;;;2.00;;
23242;SDS011;11790;49.578;11.214;2023-06-14T15:16:57;3.42;;;2.17;;
23242;SDS011;11790;49.578;11.214;2023-06-14T15:21:58;3.85;;;2.20;;
23242;SDS011;11790;49.578;11.214;2023-06-14T15:26:59;6.47;;;2.50;;
23242;SDS011;11790;49.578;11.214;2023-06-14T15:32:00;4.33;;;2.23;;
23242;SDS011;11790;49.578;11.214;2023-06-14T15:37:00;8.68;;;2.33;;
23242;SDS011;11790;49.578;11.214;2023-06-14T15:42:02;4.20;;;1.98;;
23242;SDS011;11790;49.578;11.214;2023-06-14T15:47:03;4.85;;;2.22;;
23242;SDS011;11790;49.578;11.214;2023-06-14T15:52:03;7.50;;;2.95;;
23242;SDS011;11790;49.578;11.214;2023-06-14T15:57:04;2.70;;;2.10;;
23242;SDS011;11790;49.578;11.214;2023-06-14T16:02:04;7.00;;;2.00;;
23242;SDS011;11790;49.578;11.214;2023-06-14T16:07:04;3.57;;;1.83;;
23242;SDS011;11790;49.578;11.214;2023-06-14T16:12:05;2.40;;;1.80;;
23242;SDS011;11790;49.578;11.214;2023-06-14T16:17:05;3.05;;;1.95;;
23242;SDS011;11790;49.578;11.214;2023-06-14T16:22:05;3.00;;;1.93;;
23242;SDS011;11790;49.578;11.214;2023-06-14T16:27:06;3.67;;;1.60;;
23242;SDS011;11790;49.578;11.214;2023-06-14T16:32:08;3.35;;;1.60;;
23242;SDS011;11790;49.578;11.214;2023-06-14T16:37:09;4.13;;;1.77;;
23242;SDS011;11790;49.578;11.214;2023-06-14T16:42:09;1.98;;;1.58;;
23242;SDS011;11790;49.578;11.214;2023-06-14T16:47:10;2.95;;;2.00;;
23242;SDS011;11790;49.578;11.214;2023-06-14T16:52:10;1.65;;;1.55;;
23242;SDS011;11790;49.578;11.214;2023-06-14T16:57:10;2.00;;;1.67;;
23242;SDS011;11790;49.578;11.214;2023-06-14T17:02:11;8.95;;;3.17;;
23242;SDS011;11790;49.578;11.214;2023-06-14T17:07:11;3.40;;;2.22;;
23242;SDS011;11790;49.578;11.214;2023-06-14T17:12:12;2.13;;;1.90;;
23242;SDS011;11790;49.578;11.214;2023-06-14T17:17:12;3.75;;;2.10;;
23242;SDS011;11790;49.578;11.214;2023-06-14T17:22:13;3.63;;;2.00;;
23242;SDS011;11790;49.578;11.214;2023-06-14T17:27:13;3.45;;;2.00;;
23242;SDS011;11790;49.578;11.214;2023-06-14T17:32:13;2.88;;;1.77;;
23242;SDS011;11790;49.578;11.214;2023-06-14T17:37:13;3.67;;;1.80;;
23242;SDS011;11790;49.578;11.214;2023-06-14T17:42:13;2.85;;;2.03;;
23242;SDS011;11790;49.578;11.214;2023-06-14T17:47:14;3.17;;;2.15;;
23242;SDS011;11790;49.578;11.214;2023-06-14T17:52:14;2.83;;;1.90;;
23242;SDS011;11790;49.578;11.214;2023-06-14T17:57:15;2.97;;;2.50;;
23242;SDS011;11790;49.578;11.214;2023-06-14T18:02:16;3.35;;;2.38;;
23242;SDS011;11790;49.578;11.214;2023-06-14T18:07:16;3.97;;;2.40;;
23242;SDS011;11790;49.578;11.214;2023-06-14T18:12:16;4.35;;;2.47;;
23242;SDS011;11790;49.578;11.214;2023-06-14T18:17:16;4.30;;;3.13;;
23242;SDS011;11790;49.578;11.214;2023-06-14T18:22:16;4.00;;;2.67;;
23242;SDS011;11790;49.578;11.214;2023-06-14T18:27:17;4.47;;;2.72;;
23242;SDS011;11790;49.578;11.214;2023-06-14T18:32:17;4.53;;;2.40;;
23242;SDS011;11790;49.578;11.214;2023-06-14T18:37:17;4.15;;;2.60;;
23242;SDS011;11790;49.578;11.214;2023-06-14T18:42:17;5.30;;;2.67;;
23242;SDS011;11790;49.578;11.214;2023-06-14T18:47:19;5.80;;;3.00;;
23242;SDS011;11790;49.578;11.214;2023-06-14T18:52:19;5.32;;;2.90;;
23242;SDS011;11790;49.578;11.214;2023-06-14T18:57:20;4.75;;;2.60;;
23242;SDS011;11790;49.578;11.214;2023-06-14T19:02:20;5.80;;;3.33;;
23242;SDS011;11790;49.578;11.214;2023-06-14T19:07:21;4.43;;;3.03;;
23242;SDS011;11790;49.578;11.214;2023-06-14T19:12:21;7.90;;;2.78;;
23242;SDS011;11790;49.578;11.214;2023-06-14T19:17:21;3.97;;;3.00;;
23242;SDS011;11790;49.578;11.214;2023-06-14T19:22:21;5.00;;;2.75;;
23242;SDS011;11790;49.578;11.214;2023-06-14T19:27:21;3.83;;;2.97;;
23242;SDS011;11790;49.578;11.214;2023-06-14T19:32:22;3.38;;;2.80;;
23242;SDS011;11790;49.578;11.214;2023-06-14T19:37:22;3.58;;;2.83;;
23242;SDS011;11790;49.578;11.214;2023-06-14T19:42:22;3.50;;;2.95;;
23242;SDS011;11790;49.578;11.214;2023-06-14T19:47:23;6.63;;;3.70;;
23242;SDS011;11790;49.578;11.214;2023-06-14T19:52:23;3.15;;;2.80;;
23242;SDS011;11790;49.578;11.214;2023-06-14T19:57:24;4.27;;;3.00;;
23242;SDS011;11790;49.578;11.214;2023-06-14T20:02:24;4.40;;;3.05;;
23242;SDS011;11790;49.578;11.214;2023-06-14T20:07:25;4.53;;;3.30;;
23242;SDS011;11790;49.578;11.214;2023-06-14T20:12:25;6.03;;;3.20;;
23242;SDS011;11790;49.578;11.214;2023-06-14T20:17:26;6.43;;;3.70;;
23242;SDS011;11790;49.578;11.214;2023-06-14T20:22:27;4.78;;;3.33;;
23242;SDS011;11790;49.578;11.214;2023-06-14T20:27:27;5.85;;;3.30;;
23242;SDS011;11790;49.578;11.214;2023-06-14T20:32:27;3.50;;;3.05;;
23242;SDS011;11790;49.578;11.214;2023-06-14T20:37:27;4.47;;;3.40;;
23242;SDS011;11790;49.578;11.214;2023-06-14T20:42:28;6.77;;;3.57;;
23242;SDS011;11790;49.578;11.214;2023-06-14T20:47:29;3.40;;;2.88;;
23242;SDS011;11790;49.578;11.214;2023-06-14T20:52:29;4.07;;;3.25;;
23242;SDS011;11790;49.578;11.214;2023-06-14T20:57:29;6.85;;;3.60;;
23242;SDS011;11790;49.578;11.214;2023-06-14T21:02:29;3.83;;;3.07;;
23242;SDS011;11790;49.578;11.214;2023-06-14T21:07:30;4.82;;;3.33;;
23242;SDS011;11790;49.578;11.214;2023-06-14T21:12:30;4.70;;;3.30;;
23242;SDS011;11790;49.578;11.214;2023-06-14T21:17:30;4.38;;;3.42;;
23242;SDS011;11790;49.578;11.214;2023-06-14T21:22:30;5.25;;;3.40;;
23242;SDS011;11790;49.578;11.214;2023-06-14T21:27:31;4.38;;;3.38;;
23242;SDS011;11790;49.578;11.214;2023-06-14T21:32:31;4.05;;;3.25;;
23242;SDS011;11790;49.578;11.214;2023-06-14T21:37:31;3.53;;;3.13;;
23242;SDS011;11790;49.578;11.214;2023-06-14T21:42:31;4.85;;;3.47;;
23242;SDS011;11790;49.578;11.214;2023-06-14T21:47:31;6.00;;;3.67;;
23242;SDS011;11790;49.578;11.214;2023-06-14T21:52:32;4.38;;;3.45;;
23242;SDS011;11790;49.578;11.214;2023-06-14T21:57:32;7.70;;;3.17;;
23242;SDS011;11790;49.578;11.214;2023-06-14T22:02:32;6.43;;;3.42;;
23242;SDS011;11790;49.578;11.214;2023-06-14T22:07:32;3.67;;;3.30;;
23242;SDS011;11790;49.578;11.214;2023-06-14T22:12:33;5.80;;;3.20;;
23242;SDS011;11790;49.578;11.214;2023-06-14T22:17:33;4.85;;;3.70;;
23242;SDS011;11790;49.578;11.214;2023-06-14T22:22:34;5.90;;;3.50;;
23242;SDS011;11790;49.578;11.214;2023-06-14T22:27:37;4.20;;;3.28;;
23242;SDS011;11790;49.578;11.214;2023-06-14T22:32:45;5.03;;;3.63;;
23242;SDS011;11790;49.578;11.214;2023-06-14T22:37:45;5.15;;;3.60;;
23242;SDS011;11790;49.578;11.214;2023-06-14T22:42:47;4.53;;;3.20;;
23242;SDS011;11790;49.578;11.214;2023-06-14T22:47:52;4.75;;;3.30;;
23242;SDS011;11790;49.578;11.214;2023-06-14T22:52:53;5.75;;;3.40;;
23242;SDS011;11790;49.578;11.214;2023-06-14T22:57:53;4.95;;;3.80;;
23242;SDS011;11790;49.578;11.214;2023-06-14T23:02:53;3.95;;;3.55;;
23242;SDS011;11790;49.578;11.214;2023-06-14T23:07:53;4.82;;;3.60;;
23242;SDS011;11790;49.578;11.214;2023-06-14T23:12:55;4.07;;;3.50;;
23242;SDS011;11790;49.578;11.214;2023-06-14T23:17:57;6.25;;;3.65;;
23242;SDS011;11790;49.578;11.214;2023-06-14T23:22:58;6.75;;;3.65;;
23242;SDS011;11790;49.578;11.214;2023-06-14T23:28:02;4.65;;;3.65;;
23242;SDS011;11790;49.578;11.214;2023-06-14T23:33:03;4.93;;;3.78;;
23242;SDS011;11790;49.578;11.214;2023-06-14T23:38:03;5.07;;;3.73;;
23242;SDS011;11790;49.578;11.214;2023-06-14T23:43:04;4.70;;;3.70;;
23242;SDS011;11790;49.578;11.214;2023-06-14T23:48:07;7.60;;;4.00;;
23242;SDS011;11790;49.578;11.214;2023-06-14T23:53:07;5.40;;;4.05;;
23242;SDS011;11790;49.578;11.214;2023-06-14T23:58:07;4.63;;;3.65;;
